createdAt,value
2017-12-28T00:04:46.284Z,1.89
2017-12-28T00:09:47.156Z,1.96
2017-12-28T00:14:47.953Z,2.03
2017-12-28T00:19:48.715Z,2.04
2017-12-28T00:24:49.518Z,2.03
2017-12-28T00:29:50.321Z,2.09
2017-12-28T00:34:51.108Z,1.99
2017-12-28T00:39:51.897Z,1.87
2017-12-28T00:44:53.460Z,1.83
2017-12-28T00:49:54.272Z,1.76
2017-12-28T00:54:55.062Z,1.79
2017-12-28T01:16:20.321Z,1.66
2017-12-28T01:21:21.113Z,1.60
2017-12-28T01:26:21.920Z,1.65
2017-12-28T01:31:22.720Z,1.58
2017-12-28T01:36:23.504Z,1.62
2017-12-28T01:41:24.318Z,1.70
2017-12-28T01:46:25.141Z,1.82
2017-12-28T01:51:25.923Z,2.00
2017-12-28T01:56:26.693Z,2.02
2017-12-28T02:01:27.545Z,2.09
2017-12-28T02:23:03.725Z,2.31
2017-12-28T02:28:04.588Z,2.28
2017-12-28T02:33:05.386Z,2.32
2017-12-28T02:38:06.178Z,2.32
2017-12-28T02:43:06.978Z,2.26
2017-12-28T02:48:07.754Z,2.21
2017-12-28T02:53:08.545Z,2.14
2017-12-28T02:58:09.341Z,2.21
2017-12-28T03:03:10.129Z,2.26
2017-12-28T03:19:25.940Z,2.13
2017-12-28T03:24:26.757Z,2.08
2017-12-28T03:29:27.562Z,1.98
2017-12-28T03:34:28.366Z,1.87
2017-12-28T03:39:32.261Z,1.81
2017-12-28T03:44:33.081Z,1.72
2017-12-28T03:49:33.921Z,1.70
2017-12-28T03:54:34.711Z,1.62
2017-12-28T03:59:35.540Z,1.64
2017-12-28T04:04:36.360Z,1.62
2017-12-28T04:09:37.258Z,1.68
2017-12-28T04:14:38.049Z,1.77
2017-12-28T04:19:39.436Z,1.85
2017-12-28T04:24:40.246Z,1.77
2017-12-28T04:29:41.053Z,1.87
2017-12-28T04:34:41.874Z,1.84
2017-12-28T04:39:42.708Z,1.83
2017-12-28T04:44:43.581Z,1.89
2017-12-28T04:49:44.385Z,2.04
2017-12-28T04:54:45.200Z,2.03
2017-12-28T04:59:46.021Z,2.01
2017-12-28T05:04:46.817Z,1.98
2017-12-28T05:26:11.118Z,2.02
2017-12-28T05:31:11.929Z,2.09
2017-12-28T05:36:13.545Z,2.09
2017-12-28T05:41:14.349Z,1.96
2017-12-28T05:46:15.153Z,2.06
2017-12-28T05:51:15.956Z,2.09
2017-12-28T05:56:16.780Z,2.10
2017-12-28T06:01:17.581Z,2.09
2017-12-28T06:06:18.417Z,2.12
2017-12-28T06:11:19.233Z,2.15
2017-12-28T06:16:20.037Z,2.14
2017-12-28T06:21:20.849Z,2.20
2017-12-28T06:26:21.709Z,2.23
2017-12-28T06:31:22.548Z,2.25
2017-12-28T06:36:23.369Z,2.26
2017-12-28T06:41:24.180Z,2.14
2017-12-28T06:46:25.003Z,2.03
2017-12-28T06:51:25.809Z,1.94
2017-12-28T06:56:26.597Z,1.84
2017-12-28T07:01:27.385Z,1.86
2017-12-28T07:06:28.176Z,1.88
2017-12-28T07:11:28.960Z,1.84
2017-12-28T07:16:29.762Z,1.95
2017-12-28T07:21:30.569Z,2.03
2017-12-28T07:26:31.373Z,2.08
2017-12-28T07:31:32.173Z,2.15
2017-12-28T07:36:32.984Z,2.15
2017-12-28T07:41:33.822Z,2.19
2017-12-28T07:46:34.625Z,2.20
2017-12-28T07:51:35.458Z,2.17
2017-12-28T07:56:36.278Z,2.21
2017-12-28T08:01:37.064Z,2.23
2017-12-28T08:23:01.401Z,2.24
2017-12-28T08:28:02.202Z,2.14
2017-12-28T08:33:03.010Z,2.13
2017-12-28T08:38:10.816Z,2.16
2017-12-28T08:43:11.626Z,2.12
2017-12-28T08:48:13.366Z,2.11
2017-12-28T08:53:14.164Z,2.14
2017-12-28T08:58:14.990Z,2.20
2017-12-28T09:03:15.800Z,2.23
2017-12-28T09:08:17.448Z,2.27
2017-12-28T09:13:18.297Z,2.35
2017-12-28T09:18:19.093Z,2.28
2017-12-28T09:29:01.617Z,2.22
2017-12-28T09:34:02.440Z,2.35
2017-12-28T09:39:03.279Z,2.37
2017-12-28T09:44:04.067Z,2.46
2017-12-28T09:49:04.865Z,2.44
2017-12-28T09:54:05.653Z,2.55
2017-12-28T09:59:06.461Z,2.49
2017-12-28T10:04:07.270Z,2.39
2017-12-28T10:09:08.111Z,2.39
2017-12-28T10:14:08.932Z,2.42
2017-12-28T10:19:09.786Z,2.30
2017-12-28T10:24:10.589Z,2.46
2017-12-28T10:29:11.380Z,2.39
2017-12-28T11:01:31.492Z,2.61
2017-12-28T11:06:32.305Z,2.63
2017-12-28T11:11:33.129Z,2.75
2017-12-28T11:16:33.935Z,2.83
2017-12-28T11:21:51.996Z,2.93
2017-12-28T11:26:52.791Z,2.74
2017-12-28T11:31:53.614Z,2.89
2017-12-28T11:36:54.413Z,2.77
2017-12-28T11:41:55.237Z,2.74
2017-12-28T11:46:56.049Z,2.83
2017-12-28T11:52:03.016Z,2.92
2017-12-28T11:57:10.072Z,2.74
2017-12-28T12:02:10.905Z,2.66
2017-12-28T12:07:11.708Z,2.71
2017-12-28T12:12:12.529Z,2.71
2017-12-28T12:17:13.374Z,2.84
2017-12-28T12:38:38.593Z,3.22
2017-12-28T12:43:39.400Z,3.18
2017-12-28T12:48:40.213Z,3.27
2017-12-28T12:53:41.002Z,3.19
2017-12-28T12:58:41.806Z,3.12
2017-12-28T13:03:42.628Z,3.05
2017-12-28T13:08:43.425Z,2.99
2017-12-28T13:13:44.208Z,3.04
2017-12-28T13:18:45.017Z,3.06
2017-12-28T13:23:45.798Z,3.18
2017-12-28T13:28:46.596Z,3.23
2017-12-28T13:33:47.421Z,3.17
2017-12-28T13:38:48.213Z,3.09
2017-12-28T13:43:49.039Z,3.13
2017-12-28T13:48:49.853Z,3.21
2017-12-28T13:53:50.658Z,3.16
2017-12-28T13:58:51.492Z,3.26
2017-12-28T14:09:19.589Z,3.03
2017-12-28T14:19:55.873Z,2.98
2017-12-28T14:25:03.585Z,3.00
2017-12-28T14:30:18.177Z,2.91
2017-12-28T14:46:35.047Z,2.78
2017-12-28T14:51:53.126Z,2.79
2017-12-28T14:57:02.189Z,2.74
2017-12-28T15:02:03.044Z,2.76
2017-12-28T15:07:03.858Z,2.67
2017-12-28T15:12:17.751Z,2.69
2017-12-28T15:17:18.658Z,2.65
2017-12-28T15:22:26.233Z,2.64
2017-12-28T15:27:27.030Z,2.66
2017-12-28T15:32:27.841Z,2.57
2017-12-28T15:37:28.641Z,2.53
2017-12-28T15:42:39.877Z,2.54
2017-12-28T15:47:40.682Z,2.45
2017-12-28T15:52:41.471Z,2.48
2017-12-28T15:57:50.169Z,2.48
2017-12-28T16:02:54.206Z,2.44
2017-12-28T16:07:54.989Z,2.45
2017-12-28T16:13:01.706Z,2.48
2017-12-28T16:18:02.559Z,2.43
2017-12-28T16:23:03.353Z,2.38
2017-12-28T16:28:05.120Z,2.45
2017-12-28T16:33:05.926Z,2.46
2017-12-28T16:43:41.728Z,2.38
2017-12-28T16:48:42.563Z,2.36
2017-12-28T16:53:43.354Z,2.32
2017-12-28T16:58:52.373Z,2.30
2017-12-28T17:03:53.211Z,2.21
2017-12-28T17:08:54.026Z,2.18
2017-12-28T17:13:54.809Z,2.24
2017-12-28T17:18:55.631Z,2.10
2017-12-28T17:23:56.404Z,2.00
2017-12-28T17:28:57.227Z,2.02
2017-12-28T17:33:58.054Z,2.09
2017-12-28T17:38:58.895Z,2.14
2017-12-28T17:43:59.718Z,2.20
2017-12-28T17:49:00.532Z,1.90
2017-12-28T17:54:01.352Z,1.85
2017-12-28T17:59:02.128Z,1.79
2017-12-28T18:04:02.952Z,1.78
2017-12-28T18:25:29.788Z,1.48
2017-12-28T18:30:30.619Z,1.54
2017-12-28T18:35:31.460Z,1.62
2017-12-28T18:40:32.278Z,1.59
2017-12-28T18:45:33.117Z,1.53
2017-12-28T18:50:42.028Z,1.47
2017-12-28T18:55:42.848Z,1.41
2017-12-28T19:00:43.692Z,1.40
2017-12-28T19:05:44.525Z,1.51
2017-12-28T19:10:45.310Z,1.62
2017-12-28T19:26:55.171Z,1.59
2017-12-28T19:32:09.715Z,1.50
2017-12-28T19:37:10.564Z,1.39
2017-12-28T19:42:11.420Z,1.43
2017-12-28T19:47:12.264Z,1.13
2017-12-28T19:52:13.108Z,1.29
2017-12-28T19:57:13.953Z,1.04
2017-12-28T20:02:14.804Z,1.23
2017-12-28T20:07:15.636Z,1.38
2017-12-28T20:12:16.489Z,1.34
2017-12-28T20:17:17.356Z,1.19
2017-12-28T20:22:18.220Z,1.03
2017-12-28T20:27:19.068Z,1.06
2017-12-28T20:32:19.901Z,1.08
2017-12-28T20:37:20.757Z,0.79
2017-12-28T20:42:21.613Z,0.80
2017-12-28T20:47:22.464Z,0.67
2017-12-28T20:52:23.329Z,0.74
2017-12-28T20:57:24.164Z,0.79
2017-12-28T21:02:25.028Z,0.81
2017-12-28T21:07:25.903Z,0.86
2017-12-28T21:12:26.749Z,1.01
2017-12-28T21:17:27.580Z,1.00
2017-12-28T21:22:28.446Z,0.94
2017-12-28T21:27:29.288Z,0.96
2017-12-28T21:32:30.123Z,1.01
2017-12-28T21:37:31.082Z,1.02
2017-12-28T21:42:31.951Z,1.22
2017-12-28T21:47:32.827Z,1.35
2017-12-28T21:52:33.691Z,1.45
2017-12-28T21:57:34.553Z,1.48
2017-12-28T22:02:35.428Z,1.42
2017-12-28T22:07:36.288Z,1.34
2017-12-28T22:12:37.137Z,1.25
2017-12-28T22:17:38.102Z,1.27
2017-12-28T22:22:38.973Z,1.17
2017-12-28T22:27:39.841Z,1.16
2017-12-28T22:32:40.672Z,1.15
2017-12-28T22:37:41.542Z,1.13
2017-12-28T22:42:42.396Z,1.08
2017-12-28T22:47:43.248Z,1.04
2017-12-28T22:52:44.100Z,1.05
2017-12-28T22:57:44.931Z,1.04
2017-12-28T23:02:45.776Z,1.00
2017-12-28T23:07:46.636Z,0.96
2017-12-28T23:12:47.496Z,0.94
2017-12-28T23:17:48.351Z,0.90
2017-12-28T23:22:49.203Z,0.91
2017-12-28T23:27:50.023Z,0.90
2017-12-28T23:32:50.877Z,0.86
2017-12-28T23:37:51.769Z,0.85
2017-12-28T23:42:52.620Z,0.86
2017-12-28T23:47:53.495Z,0.82
2017-12-28T23:52:54.328Z,0.85
2017-12-28T23:57:55.172Z,0.83
